sensor_id;sensor_type;location;lat;lon;timestamp;pressure;altitude;pressure_sealevel;temperature;humidity
22830;BME280;11581;51.250;6.778;2023-04-23T00:00:04;100415.94;;;13.99;66.46
22830;BME280;11581;51.250;6.778;2023-04-23T00:02:38;100412.41;;;13.99;66.55
22830;BME280;11581;51.250;6.778;2023-04-23T00:05:07;100367.34;;;13.72;66.40
22830;BME280;11581;51.250;6.778;2023-04-23T00:07:35;100403.72;;;13.97;66.57
22830;BME280;11581;51.250;6.778;2023-04-23T00:10:02;100413.59;;;13.96;66.47
22830;BME280;11581;51.250;6.778;2023-04-23T00:12:30;100411.09;;;13.95;66.62
22830;BME280;11581;51.250;6.778;2023-04-23T00:14:58;100364.84;;;13.70;66.80
22830;BME280;11581;51.250;6.778;2023-04-23T00:17:25;100404.88;;;13.94;66.75
22830;BME280;11581;51.250;6.778;2023-04-23T00:19:51;100156.63;;;12.42;66.77
22830;BME280;11581;51.250;6.778;2023-04-23T00:22:18;100401.25;;;13.87;66.93
22830;BME280;11581;51.250;6.778;2023-04-23T00:24:46;100406.09;;;13.92;67.07
22830;BME280;11581;51.250;6.778;2023-04-23T00:27:13;100402.25;;;13.86;67.08
22830;BME280;11581;51.250;6.778;2023-04-23T00:29:39;100350.16;;;13.58;67.00
22830;BME280;11581;51.250;6.778;2023-04-23T00:32:07;100403.56;;;13.90;67.05
22830;BME280;11581;51.250;6.778;2023-04-23T00:34:33;100404.41;;;13.91;66.92
22830;BME280;11581;51.250;6.778;2023-04-23T00:37:00;100399.06;;;13.91;67.33
22830;BME280;11581;51.250;6.778;2023-04-23T00:39:30;100393.28;;;13.79;67.12
22830;BME280;11581;51.250;6.778;2023-04-23T00:41:57;100408.13;;;13.90;67.24
22830;BME280;11581;51.250;6.778;2023-04-23T00:44:24;100402.75;;;13.90;67.35
22830;BME280;11581;51.250;6.778;2023-04-23T00:46:52;100334.69;;;13.45;67.45
22830;BME280;11581;51.250;6.778;2023-04-23T00:49:19;100339.34;;;13.52;67.49
22830;BME280;11581;51.250;6.778;2023-04-23T00:51:46;100398.56;;;13.87;67.37
22830;BME280;11581;51.250;6.778;2023-04-23T00:54:13;100401.25;;;13.87;67.62
22830;BME280;11581;51.250;6.778;2023-04-23T00:56:39;100380.50;;;13.81;67.61
22830;BME280;11581;51.250;6.778;2023-04-23T00:59:06;100387.84;;;13.87;67.66
22830;BME280;11581;51.250;6.778;2023-04-23T01:01:32;100399.41;;;13.88;67.54
22830;BME280;11581;51.250;6.778;2023-04-23T01:04:01;100395.72;;;13.89;67.62
22830;BME280;11581;51.250;6.778;2023-04-23T01:06:27;100332.47;;;13.49;67.55
22830;BME280;11581;51.250;6.778;2023-04-23T01:08:56;100374.72;;;13.70;67.49
22830;BME280;11581;51.250;6.778;2023-04-23T01:11:22;100375.81;;;13.83;67.58
22830;BME280;11581;51.250;6.778;2023-04-23T01:13:49;100381.84;;;13.85;67.27
22830;BME280;11581;51.250;6.778;2023-04-23T01:16:15;100385.16;;;13.87;67.37
22830;BME280;11581;51.250;6.778;2023-04-23T01:18:42;100378.16;;;13.86;67.48
22830;BME280;11581;51.250;6.778;2023-04-23T01:21:10;100380.81;;;13.86;67.31
22830;BME280;11581;51.250;6.778;2023-04-23T01:23:37;100343.94;;;13.66;67.37
22830;BME280;11581;51.250;6.778;2023-04-23T01:26:04;100378.31;;;13.85;67.49
22830;BME280;11581;51.250;6.778;2023-04-23T01:28:31;100373.13;;;13.83;67.58
22830;BME280;11581;51.250;6.778;2023-04-23T01:30:58;100373.31;;;13.82;67.44
22830;BME280;11581;51.250;6.778;2023-04-23T01:33:26;100370.81;;;13.80;67.54
22830;BME280;11581;51.250;6.778;2023-04-23T01:35:53;100367.50;;;13.78;67.55
22830;BME280;11581;51.250;6.778;2023-04-23T01:38:21;100372.19;;;13.76;67.65
22830;BME280;11581;51.250;6.778;2023-04-23T01:40:47;100366.81;;;13.76;67.67
22830;BME280;11581;51.250;6.778;2023-04-23T01:43:14;100311.09;;;13.41;67.69
22830;BME280;11581;51.250;6.778;2023-04-23T01:45:41;100368.84;;;13.74;67.46
22830;BME280;11581;51.250;6.778;2023-04-23T01:48:07;100318.09;;;13.42;67.67
22830;BME280;11581;51.250;6.778;2023-04-23T01:50:34;100345.81;;;13.57;67.61
22830;BME280;11581;51.250;6.778;2023-04-23T01:53:01;100362.69;;;13.66;68.04
22830;BME280;11581;51.250;6.778;2023-04-23T01:55:27;100347.19;;;13.53;68.02
22830;BME280;11581;51.250;6.778;2023-04-23T01:57:54;100346.00;;;13.56;68.36
22830;BME280;11581;51.250;6.778;2023-04-23T02:00:20;100179.66;;;12.51;68.33
22830;BME280;11581;51.250;6.778;2023-04-23T02:02:47;100332.03;;;13.37;68.45
22830;BME280;11581;51.250;6.778;2023-04-23T02:05:17;100305.91;;;13.09;68.68
22830;BME280;11581;51.250;6.778;2023-04-23T02:07:47;100368.97;;;13.50;68.75
22830;BME280;11581;51.250;6.778;2023-04-23T02:10:14;100354.53;;;13.28;68.64
22830;BME280;11581;51.250;6.778;2023-04-23T02:12:41;100375.03;;;13.44;68.79
22830;BME280;11581;51.250;6.778;2023-04-23T02:15:09;100371.03;;;13.40;69.00
22830;BME280;11581;51.250;6.778;2023-04-23T02:17:36;100367.88;;;13.36;69.08
22830;BME280;11581;51.250;6.778;2023-04-23T02:20:05;100322.31;;;13.06;69.00
22830;BME280;11581;51.250;6.778;2023-04-23T02:22:35;100362.72;;;13.27;68.87
22830;BME280;11581;51.250;6.778;2023-04-23T02:25:02;100355.28;;;13.06;69.13
22830;BME280;11581;51.250;6.778;2023-04-23T02:27:29;100364.78;;;13.17;69.21
22830;BME280;11581;51.250;6.778;2023-04-23T02:29:57;100341.06;;;12.98;69.27
22830;BME280;11581;51.250;6.778;2023-04-23T02:32:24;100297.81;;;12.70;69.24
22830;BME280;11581;51.250;6.778;2023-04-23T02:34:52;100354.31;;;12.99;69.50
22830;BME280;11581;51.250;6.778;2023-04-23T02:37:19;100359.47;;;13.01;69.75
22830;BME280;11581;51.250;6.778;2023-04-23T02:39:46;100360.78;;;12.97;69.64
22830;BME280;11581;51.250;6.778;2023-04-23T02:42:12;100311.38;;;12.61;70.08
22830;BME280;11581;51.250;6.778;2023-04-23T02:44:38;100361.66;;;12.89;70.24
22830;BME280;11581;51.250;6.778;2023-04-23T02:47:05;100352.09;;;12.87;70.57
22830;BME280;11581;51.250;6.778;2023-04-23T02:49:32;100358.47;;;12.86;70.96
22830;BME280;11581;51.250;6.778;2023-04-23T02:51:58;100354.16;;;12.85;71.34
22830;BME280;11581;51.250;6.778;2023-04-23T02:54:25;100350.13;;;12.81;71.59
22830;BME280;11581;51.250;6.778;2023-04-23T02:56:51;100354.78;;;12.87;71.72
22830;BME280;11581;51.250;6.778;2023-04-23T02:59:18;100204.53;;;11.97;72.19
22830;BME280;11581;51.250;6.778;2023-04-23T03:01:44;100362.13;;;12.93;72.20
22830;BME280;11581;51.250;6.778;2023-04-23T03:04:11;100224.41;;;12.10;72.33
22830;BME280;11581;51.250;6.778;2023-04-23T03:06:38;100351.44;;;13.01;72.64
22830;BME280;11581;51.250;6.778;2023-04-23T03:09:04;100364.28;;;13.05;72.13
22830;BME280;11581;51.250;6.778;2023-04-23T03:11:31;100345.03;;;13.10;72.11
22830;BME280;11581;51.250;6.778;2023-04-23T03:13:57;100333.00;;;13.06;72.06
22830;BME280;11581;51.250;6.778;2023-04-23T03:16:26;100346.03;;;13.17;72.26
22830;BME280;11581;51.250;6.778;2023-04-23T03:18:53;100345.50;;;13.21;71.86
22830;BME280;11581;51.250;6.778;2023-04-23T03:21:19;100344.16;;;13.25;71.78
22830;BME280;11581;51.250;6.778;2023-04-23T03:23:46;100337.59;;;13.28;71.63
22830;BME280;11581;51.250;6.778;2023-04-23T03:26:12;100266.81;;;12.92;71.43
22830;BME280;11581;51.250;6.778;2023-04-23T03:28:39;100326.91;;;13.28;71.53
22830;BME280;11581;51.250;6.778;2023-04-23T03:31:05;100324.16;;;13.36;71.50
22830;BME280;11581;51.250;6.778;2023-04-23T03:33:32;100285.78;;;13.13;71.21
22830;BME280;11581;51.250;6.778;2023-04-23T03:35:58;100074.31;;;11.83;70.95
22830;BME280;11581;51.250;6.778;2023-04-23T03:38:28;100327.50;;;13.38;71.01
22830;BME280;11581;51.250;6.778;2023-04-23T03:40:56;100331.84;;;13.39;70.48
22830;BME280;11581;51.250;6.778;2023-04-23T03:43:23;100324.53;;;13.33;70.56
22830;BME280;11581;51.250;6.778;2023-04-23T03:46:02;100261.91;;;12.95;70.29
22830;BME280;11581;51.250;6.778;2023-04-23T03:48:31;100302.34;;;13.16;70.30
22830;BME280;11581;51.250;6.778;2023-04-23T03:51:01;100323.88;;;13.31;70.21
22830;BME280;11581;51.250;6.778;2023-04-23T03:53:36;100326.91;;;13.28;70.30
22830;BME280;11581;51.250;6.778;2023-04-23T03:56:26;100254.97;;;12.78;70.08
22830;BME280;11581;51.250;6.778;2023-04-23T03:59:17;100322.59;;;13.19;70.21
22830;BME280;11581;51.250;6.778;2023-04-23T04:01:46;100272.16;;;12.84;70.41
22830;BME280;11581;51.250;6.778;2023-04-23T04:04:16;100299.72;;;12.92;70.55
22830;BME280;11581;51.250;6.778;2023-04-23T04:06:47;100330.84;;;13.09;70.32
22830;BME280;11581;51.250;6.778;2023-04-23T04:09:19;100278.25;;;12.70;70.94
22830;BME280;11581;51.250;6.778;2023-04-23T04:11:48;100322.66;;;13.03;70.61
22830;BME280;11581;51.250;6.778;2023-04-23T04:14:15;100271.25;;;12.69;70.53
22830;BME280;11581;51.250;6.778;2023-04-23T04:16:41;100277.22;;;12.71;70.78
22830;BME280;11581;51.250;6.778;2023-04-23T04:19:08;100325.34;;;12.95;71.07
22830;BME280;11581;51.250;6.778;2023-04-23T04:21:35;100316.81;;;12.91;71.18
22830;BME280;11581;51.250;6.778;2023-04-23T04:24:02;100320.66;;;12.89;71.30
22830;BME280;11581;51.250;6.778;2023-04-23T04:26:29;100327.84;;;12.88;71.42
22830;BME280;11581;51.250;6.778;2023-04-23T04:28:57;100322.66;;;12.87;71.76
22830;BME280;11581;51.250;6.778;2023-04-23T04:31:25;100314.66;;;12.87;71.78
22830;BME280;11581;51.250;6.778;2023-04-23T04:33:55;100303.94;;;12.87;72.38
22830;BME280;11581;51.250;6.778;2023-04-23T04:36:23;100316.16;;;12.89;72.07
22830;BME280;11581;51.250;6.778;2023-04-23T04:38:51;100323.00;;;12.92;72.11
22830;BME280;11581;51.250;6.778;2023-04-23T04:41:20;100316.47;;;12.94;72.34
22830;BME280;11581;51.250;6.778;2023-04-23T04:43:49;100325.16;;;12.96;72.51
22830;BME280;11581;51.250;6.778;2023-04-23T04:46:16;100319.97;;;12.95;72.46
22830;BME280;11581;51.250;6.778;2023-04-23T04:48:44;100331.34;;;13.05;72.59
22830;BME280;11581;51.250;6.778;2023-04-23T04:51:10;100348.72;;;13.09;72.74
22830;BME280;11581;51.250;6.778;2023-04-23T04:53:37;100332.81;;;13.15;72.89
22830;BME280;11581;51.250;6.778;2023-04-23T04:56:03;100210.81;;;12.36;73.16
22830;BME280;11581;51.250;6.778;2023-04-23T04:58:30;100339.41;;;13.35;73.98
22830;BME280;11581;51.250;6.778;2023-04-23T05:00:57;100341.16;;;13.51;74.41
22830;BME280;11581;51.250;6.778;2023-04-23T05:03:26;100270.31;;;13.31;74.75
22830;BME280;11581;51.250;6.778;2023-04-23T05:05:53;100338.72;;;13.95;74.83
22830;BME280;11581;51.250;6.778;2023-04-23T05:08:20;100316.00;;;14.05;74.04
22830;BME280;11581;51.250;6.778;2023-04-23T05:10:47;100333.16;;;14.41;72.67
22830;BME280;11581;51.250;6.778;2023-04-23T05:13:16;100333.00;;;14.57;71.47
22830;BME280;11581;51.250;6.778;2023-04-23T05:15:42;100340.59;;;14.68;70.46
22830;BME280;11581;51.250;6.778;2023-04-23T05:18:09;100290.16;;;14.49;69.70
22830;BME280;11581;51.250;6.778;2023-04-23T05:20:36;100330.81;;;14.75;69.23
22830;BME280;11581;51.250;6.778;2023-04-23T05:23:03;100343.09;;;14.84;69.00
22830;BME280;11581;51.250;6.778;2023-04-23T05:25:30;100213.84;;;14.15;68.53
22830;BME280;11581;51.250;6.778;2023-04-23T05:27:58;100325.53;;;14.82;68.36
22830;BME280;11581;51.250;6.778;2023-04-23T05:30:25;100320.63;;;14.85;68.20
22830;BME280;11581;51.250;6.778;2023-04-23T05:32:51;100145.81;;;13.64;68.26
22830;BME280;11581;51.250;6.778;2023-04-23T05:35:18;100324.06;;;14.79;68.29
22830;BME280;11581;51.250;6.778;2023-04-23T05:37:44;100329.59;;;14.78;68.50
22830;BME280;11581;51.250;6.778;2023-04-23T05:40:11;100328.75;;;14.77;68.37
22830;BME280;11581;51.250;6.778;2023-04-23T05:42:37;100333.31;;;14.77;68.41
22830;BME280;11581;51.250;6.778;2023-04-23T05:45:04;100314.97;;;14.66;68.51
22830;BME280;11581;51.250;6.778;2023-04-23T05:47:31;100327.47;;;14.73;68.67
22830;BME280;11581;51.250;6.778;2023-04-23T05:49:57;100327.66;;;14.72;68.89
22830;BME280;11581;51.250;6.778;2023-04-23T05:52:24;100332.84;;;14.73;68.80
22830;BME280;11581;51.250;6.778;2023-04-23T05:54:50;100290.53;;;14.46;69.06
22830;BME280;11581;51.250;6.778;2023-04-23T05:57:17;100304.31;;;14.58;68.94
22830;BME280;11581;51.250;6.778;2023-04-23T05:59:43;100314.16;;;14.65;69.04
22830;BME280;11581;51.250;6.778;2023-04-23T06:02:10;100218.81;;;14.03;69.00
22830;BME280;11581;51.250;6.778;2023-04-23T06:04:36;100328.88;;;14.84;68.92
22830;BME280;11581;51.250;6.778;2023-04-23T06:07:03;100336.00;;;14.77;68.80
22830;BME280;11581;51.250;6.778;2023-04-23T06:09:29;100328.88;;;14.84;68.82
22830;BME280;11581;51.250;6.778;2023-04-23T06:11:56;100332.28;;;14.92;68.76
22830;BME280;11581;51.250;6.778;2023-04-23T06:14:22;100315.25;;;14.85;68.73
22830;BME280;11581;51.250;6.778;2023-04-23T06:16:49;100316.19;;;14.92;68.80
22830;BME280;11581;51.250;6.778;2023-04-23T06:19:15;100330.34;;;15.01;68.87
22830;BME280;11581;51.250;6.778;2023-04-23T06:21:42;100330.44;;;15.07;68.99
22830;BME280;11581;51.250;6.778;2023-04-23T06:24:08;100326.00;;;15.14;69.20
22830;BME280;11581;51.250;6.778;2023-04-23T06:26:35;100298.59;;;15.04;68.97
22830;BME280;11581;51.250;6.778;2023-04-23T06:29:09;100332.44;;;15.34;68.84
22830;BME280;11581;51.250;6.778;2023-04-23T06:32:02;100322.91;;;15.46;68.68
22830;BME280;11581;51.250;6.778;2023-04-23T06:34:29;100319.72;;;15.57;68.48
22830;BME280;11581;51.250;6.778;2023-04-23T06:36:55;100298.34;;;15.49;68.25
22830;BME280;11581;51.250;6.778;2023-04-23T06:39:22;100243.88;;;15.26;68.17
22830;BME280;11581;51.250;6.778;2023-04-23T06:41:48;100326.22;;;15.84;68.18
22830;BME280;11581;51.250;6.778;2023-04-23T06:44:21;100312.06;;;15.97;68.12
22830;BME280;11581;51.250;6.778;2023-04-23T06:46:50;100305.16;;;16.09;68.28
22830;BME280;11581;51.250;6.778;2023-04-23T06:49:17;100324.84;;;16.37;67.95
22830;BME280;11581;51.250;6.778;2023-04-23T06:51:43;100284.50;;;16.37;67.76
22830;BME280;11581;51.250;6.778;2023-04-23T06:54:09;100266.56;;;16.44;67.15
22830;BME280;11581;51.250;6.778;2023-04-23T06:56:36;100311.81;;;16.95;66.57
22830;BME280;11581;51.250;6.778;2023-04-23T06:59:02;100305.91;;;17.13;66.12
22830;BME280;11581;51.250;6.778;2023-04-23T07:01:30;100303.06;;;17.21;65.56
22830;BME280;11581;51.250;6.778;2023-04-23T07:03:57;100309.81;;;17.44;65.17
22830;BME280;11581;51.250;6.778;2023-04-23T07:06:23;100284.50;;;17.45;64.91
22830;BME280;11581;51.250;6.778;2023-04-23T07:08:51;100305.53;;;17.76;64.50
22830;BME280;11581;51.250;6.778;2023-04-23T07:11:17;100297.06;;;17.92;64.16
22830;BME280;11581;51.250;6.778;2023-04-23T07:13:44;100279.22;;;17.98;64.20
22830;BME280;11581;51.250;6.778;2023-04-23T07:16:11;100290.88;;;18.24;63.51
22830;BME280;11581;51.250;6.778;2023-04-23T07:18:37;100281.75;;;18.38;64.18
22830;BME280;11581;51.250;6.778;2023-04-23T07:21:04;100254.31;;;18.48;64.29
22830;BME280;11581;51.250;6.778;2023-04-23T07:23:30;100251.38;;;18.75;64.89
22830;BME280;11581;51.250;6.778;2023-04-23T07:25:57;100255.97;;;19.32;65.00
22830;BME280;11581;51.250;6.778;2023-04-23T07:28:23;100267.06;;;19.86;63.74
22830;BME280;11581;51.250;6.778;2023-04-23T07:30:50;100286.66;;;20.44;61.39
22830;BME280;11581;51.250;6.778;2023-04-23T07:33:16;100291.22;;;20.86;60.28
22830;BME280;11581;51.250;6.778;2023-04-23T07:35:42;100218.88;;;20.86;61.11
22830;BME280;11581;51.250;6.778;2023-04-23T07:38:09;100284.25;;;21.80;60.39
22830;BME280;11581;51.250;6.778;2023-04-23T07:40:36;100280.38;;;22.40;61.01
22830;BME280;11581;51.250;6.778;2023-04-23T07:43:02;100264.97;;;23.03;59.38
22830;BME280;11581;51.250;6.778;2023-04-23T07:45:28;100269.41;;;23.72;56.09
22830;BME280;11581;51.250;6.778;2023-04-23T07:47:55;100269.06;;;24.30;53.71
22830;BME280;11581;51.250;6.778;2023-04-23T07:50:21;100267.41;;;24.78;53.08
22830;BME280;11581;51.250;6.778;2023-04-23T07:52:48;100267.81;;;25.30;52.24
22830;BME280;11581;51.250;6.778;2023-04-23T07:55:14;100266.03;;;25.88;51.79
22830;BME280;11581;51.250;6.778;2023-04-23T07:57:41;100267.41;;;26.49;50.42
22830;BME280;11581;51.250;6.778;2023-04-23T08:00:08;100267.81;;;27.09;48.67
22830;BME280;11581;51.250;6.778;2023-04-23T08:02:38;100269.72;;;27.70;47.98
22830;BME280;11581;51.250;6.778;2023-04-23T08:05:05;100215.25;;;27.89;45.99
22830;BME280;11581;51.250;6.778;2023-04-23T08:07:32;100253.31;;;28.86;45.10
22830;BME280;11581;51.250;6.778;2023-04-23T08:09:58;100232.81;;;29.32;44.05
22830;BME280;11581;51.250;6.778;2023-04-23T08:12:28;100254.41;;;30.02;42.17
22830;BME280;11581;51.250;6.778;2023-04-23T08:14:55;100236.19;;;30.45;41.15
22830;BME280;11581;51.250;6.778;2023-04-23T08:17:28;100235.97;;;30.93;40.46
22830;BME280;11581;51.250;6.778;2023-04-23T08:19:54;100241.44;;;31.40;38.32
22830;BME280;11581;51.250;6.778;2023-04-23T08:22:21;100224.13;;;31.58;37.03
22830;BME280;11581;51.250;6.778;2023-04-23T08:24:47;100244.78;;;31.98;36.42
22830;BME280;11581;51.250;6.778;2023-04-23T08:27:14;100166.19;;;31.63;35.82
22830;BME280;11581;51.250;6.778;2023-04-23T08:29:40;100237.81;;;32.38;34.30
22830;BME280;11581;51.250;6.778;2023-04-23T08:32:07;100240.75;;;32.41;33.48
22830;BME280;11581;51.250;6.778;2023-04-23T08:34:33;100231.38;;;32.24;33.18
22830;BME280;11581;51.250;6.778;2023-04-23T08:37:00;100246.06;;;32.19;32.87
22830;BME280;11581;51.250;6.778;2023-04-23T08:39:26;100233.53;;;31.94;33.20
22830;BME280;11581;51.250;6.778;2023-04-23T08:41:54;100235.41;;;31.80;33.05
22830;BME280;11581;51.250;6.778;2023-04-23T08:44:23;100241.63;;;31.67;32.38
22830;BME280;11581;51.250;6.778;2023-04-23T08:46:52;100238.59;;;31.50;31.76
22830;BME280;11581;51.250;6.778;2023-04-23T08:49:19;100236.63;;;31.32;32.56
22830;BME280;11581;51.250;6.778;2023-04-23T08:51:48;100241.78;;;31.15;31.07
22830;BME280;11581;51.250;6.778;2023-04-23T08:54:20;100223.38;;;30.87;32.01
22830;BME280;11581;51.250;6.778;2023-04-23T08:56:48;100251.50;;;30.84;33.77
22830;BME280;11581;51.250;6.778;2023-04-23T08:59:17;100248.00;;;31.02;33.30
22830;BME280;11581;51.250;6.778;2023-04-23T09:01:45;100213.88;;;30.98;33.18
22830;BME280;11581;51.250;6.778;2023-04-23T09:04:12;100242.41;;;31.31;33.06
22830;BME280;11581;51.250;6.778;2023-04-23T09:06:41;100233.19;;;31.40;32.86
22830;BME280;11581;51.250;6.778;2023-04-23T09:09:08;100195.81;;;31.34;32.83
22830;BME280;11581;51.250;6.778;2023-04-23T09:11:36;100227.25;;;31.70;31.67
22830;BME280;11581;51.250;6.778;2023-04-23T09:14:03;100187.97;;;31.78;32.36
22830;BME280;11581;51.250;6.778;2023-04-23T09:16:29;100212.50;;;32.31;31.84
22830;BME280;11581;51.250;6.778;2023-04-23T09:18:57;100214.34;;;32.54;30.38
22830;BME280;11581;51.250;6.778;2023-04-23T09:21:24;100188.78;;;32.62;30.79
22830;BME280;11581;51.250;6.778;2023-04-23T09:23:50;100181.44;;;32.71;30.22
22830;BME280;11581;51.250;6.778;2023-04-23T09:26:19;100208.03;;;32.94;29.50
22830;BME280;11581;51.250;6.778;2023-04-23T09:28:48;100189.81;;;32.79;28.82
22830;BME280;11581;51.250;6.778;2023-04-23T09:31:22;100158.09;;;32.50;28.03
22830;BME280;11581;51.250;6.778;2023-04-23T09:33:52;100194.06;;;32.45;28.87
22830;BME280;11581;51.250;6.778;2023-04-23T09:36:22;100216.91;;;32.32;27.49
22830;BME280;11581;51.250;6.778;2023-04-23T09:38:49;100218.47;;;31.87;29.04
22830;BME280;11581;51.250;6.778;2023-04-23T09:41:21;100121.66;;;30.77;27.80
22830;BME280;11581;51.250;6.778;2023-04-23T09:43:47;100212.94;;;30.84;29.72
22830;BME280;11581;51.250;6.778;2023-04-23T09:46:14;100206.31;;;30.33;30.23
22830;BME280;11581;51.250;6.778;2023-04-23T09:48:41;100166.19;;;29.65;30.97
22830;BME280;11581;51.250;6.778;2023-04-23T09:51:07;100173.47;;;29.41;31.66
22830;BME280;11581;51.250;6.778;2023-04-23T09:53:41;100200.38;;;29.39;31.37
22830;BME280;11581;51.250;6.778;2023-04-23T09:56:10;100188.59;;;29.33;32.55
22830;BME280;11581;51.250;6.778;2023-04-23T09:58:37;100176.06;;;29.17;32.63
22830;BME280;11581;51.250;6.778;2023-04-23T10:01:07;100165.31;;;29.21;31.50
22830;BME280;11581;51.250;6.778;2023-04-23T10:03:34;100190.53;;;29.33;32.76
22830;BME280;11581;51.250;6.778;2023-04-23T10:06:01;100197.13;;;29.32;32.15
22830;BME280;11581;51.250;6.778;2023-04-23T10:08:27;100166.50;;;29.05;31.77
22830;BME280;11581;51.250;6.778;2023-04-23T10:10:55;100180.78;;;28.97;31.26
22830;BME280;11581;51.250;6.778;2023-04-23T10:13:22;100149.94;;;28.51;31.54
22830;BME280;11581;51.250;6.778;2023-04-23T10:15:49;100099.88;;;27.90;31.96
22830;BME280;11581;51.250;6.778;2023-04-23T10:18:17;100136.84;;;27.73;32.00
22830;BME280;11581;51.250;6.778;2023-04-23T10:20:45;100112.13;;;27.18;32.57
22830;BME280;11581;51.250;6.778;2023-04-23T10:23:12;100144.59;;;26.94;32.85
22830;BME280;11581;51.250;6.778;2023-04-23T10:25:39;100172.13;;;26.68;33.47
22830;BME280;11581;51.250;6.778;2023-04-23T10:28:08;100130.84;;;25.91;33.78
22830;BME280;11581;51.250;6.778;2023-04-23T10:30:36;100129.91;;;25.44;34.30
22830;BME280;11581;51.250;6.778;2023-04-23T10:33:03;100177.09;;;25.18;35.96
22830;BME280;11581;51.250;6.778;2023-04-23T10:35:30;100176.47;;;24.68;36.92
22830;BME280;11581;51.250;6.778;2023-04-23T10:37:56;100171.72;;;24.25;38.90
22830;BME280;11581;51.250;6.778;2023-04-23T10:40:29;100173.03;;;23.73;39.24
22830;BME280;11581;51.250;6.778;2023-04-23T10:43:06;100151.91;;;23.07;42.83
22830;BME280;11581;51.250;6.778;2023-04-23T10:45:33;100163.28;;;22.76;41.58
22830;BME280;11581;51.250;6.778;2023-04-23T10:47:59;100151.97;;;22.33;42.92
22830;BME280;11581;51.250;6.778;2023-04-23T10:50:33;100080.06;;;21.66;43.96
22830;BME280;11581;51.250;6.778;2023-04-23T10:53:01;100151.34;;;21.85;43.58
22830;BME280;11581;51.250;6.778;2023-04-23T10:55:30;100134.69;;;21.58;43.24
22830;BME280;11581;51.250;6.778;2023-04-23T10:57:58;100156.94;;;21.49;43.93
22830;BME280;11581;51.250;6.778;2023-04-23T11:00:38;100178.94;;;21.29;46.18
22830;BME280;11581;51.250;6.778;2023-04-23T11:03:36;100164.53;;;20.99;46.24
22830;BME280;11581;51.250;6.778;2023-04-23T11:06:04;100157.16;;;20.70;46.88
22830;BME280;11581;51.250;6.778;2023-04-23T11:08:34;100104.53;;;20.06;48.83
22830;BME280;11581;51.250;6.778;2023-04-23T11:11:07;100157.81;;;20.12;49.39
22830;BME280;11581;51.250;6.778;2023-04-23T11:13:33;100115.56;;;19.61;49.08
22830;BME280;11581;51.250;6.778;2023-04-23T11:16:15;100138.41;;;19.65;51.20
22830;BME280;11581;51.250;6.778;2023-04-23T11:19:02;100138.25;;;19.60;55.04
22830;BME280;11581;51.250;6.778;2023-04-23T11:21:58;100131.53;;;19.69;52.74
22830;BME280;11581;51.250;6.778;2023-04-23T11:24:38;100131.34;;;19.89;52.44
22830;BME280;11581;51.250;6.778;2023-04-23T11:27:08;100121.97;;;20.10;51.30
22830;BME280;11581;51.250;6.778;2023-04-23T11:29:36;100100.31;;;20.16;51.90
22830;BME280;11581;51.250;6.778;2023-04-23T11:32:03;100060.16;;;20.07;50.94
22830;BME280;11581;51.250;6.778;2023-04-23T11:34:38;100110.56;;;20.62;50.33
22830;BME280;11581;51.250;6.778;2023-04-23T11:37:12;100106.66;;;20.76;49.85
22830;BME280;11581;51.250;6.778;2023-04-23T11:39:39;100096.22;;;20.91;50.11
22830;BME280;11581;51.250;6.778;2023-04-23T11:42:13;100092.66;;;21.08;47.42
22830;BME280;11581;51.250;6.778;2023-04-23T11:44:41;100086.97;;;21.28;48.07
22830;BME280;11581;51.250;6.778;2023-04-23T11:47:12;100086.16;;;21.50;46.35
22830;BME280;11581;51.250;6.778;2023-04-23T11:49:41;100080.09;;;21.78;46.06
22830;BME280;11581;51.250;6.778;2023-04-23T11:52:09;100078.56;;;22.05;45.28
22830;BME280;11581;51.250;6.778;2023-04-23T11:54:39;100078.38;;;22.35;43.07
22830;BME280;11581;51.250;6.778;2023-04-23T11:57:06;100017.56;;;22.36;44.95
22830;BME280;11581;51.250;6.778;2023-04-23T11:59:32;100068.63;;;23.01;43.88
22830;BME280;11581;51.250;6.778;2023-04-23T12:01:59;100064.31;;;23.33;42.84
22830;BME280;11581;51.250;6.778;2023-04-23T12:04:27;100065.81;;;23.57;41.02
22830;BME280;11581;51.250;6.778;2023-04-23T12:06:55;100055.22;;;23.77;41.23
22830;BME280;11581;51.250;6.778;2023-04-23T12:09:23;99975.22;;;23.40;39.66
22830;BME280;11581;51.250;6.778;2023-04-23T12:11:50;99986.78;;;23.69;39.68
22830;BME280;11581;51.250;6.778;2023-04-23T12:14:18;100034.56;;;24.15;38.11
22830;BME280;11581;51.250;6.778;2023-04-23T12:16:48;100010.97;;;24.03;38.17
22830;BME280;11581;51.250;6.778;2023-04-23T12:19:24;99913.94;;;23.38;35.67
22830;BME280;11581;51.250;6.778;2023-04-23T12:21:58;100035.63;;;24.14;35.38
22830;BME280;11581;51.250;6.778;2023-04-23T12:24:29;100026.91;;;24.12;35.42
22830;BME280;11581;51.250;6.778;2023-04-23T12:26:59;100015.66;;;24.08;35.54
22830;BME280;11581;51.250;6.778;2023-04-23T12:29:29;99979.09;;;23.82;36.25
22830;BME280;11581;51.250;6.778;2023-04-23T12:31:58;100015.66;;;24.08;37.38
22830;BME280;11581;51.250;6.778;2023-04-23T12:34:24;99992.78;;;24.09;37.82
22830;BME280;11581;51.250;6.778;2023-04-23T12:36:54;99962.97;;;23.97;35.45
22830;BME280;11581;51.250;6.778;2023-04-23T12:39:29;100007.56;;;24.35;35.78
22830;BME280;11581;51.250;6.778;2023-04-23T12:41:59;100008.63;;;24.55;34.43
22830;BME280;11581;51.250;6.778;2023-04-23T12:44:27;100001.66;;;24.64;36.63
22830;BME280;11581;51.250;6.778;2023-04-23T12:46:56;99980.63;;;24.60;35.64
22830;BME280;11581;51.250;6.778;2023-04-23T12:49:22;100000.13;;;25.00;36.01
22830;BME280;11581;51.250;6.778;2023-04-23T12:51:49;100003.03;;;25.20;35.92
22830;BME280;11581;51.250;6.778;2023-04-23T12:54:17;99989.03;;;25.38;35.50